Time;durP1;ratioP1;P1;durP2;ratioP2;P2;SDS_P1;SDS_P2;PMS_P1;PMS_P2;Temp;Humidity;BMP_temperature;BMP_pressure;BME280_temperature;BME280_humidity;BME280_pressure;Samples;Min_cycle;Max_cycle;Signal;HPM_P1;HPM_P2
2023/01/24 00:00:44;;;;;;;28.77;13.25;;;;;;;;;;5093730;28;20027;-76
2023/01/24 00:03:12;;;;;;;26.20;13.40;;;;;;;;;;5102943;28;20239;-72
2023/01/24 00:05:42;;;;;;;27.13;13.35;;;;;;;;;;5103609;28;20024;-77
2023/01/24 00:08:08;;;;;;;24.75;12.95;;;;;;;;;;5103647;28;20027;-75
2023/01/24 00:10:34;;;;;;;28.65;13.45;;;;;;;;;;5103375;28;20024;-76
2023/01/24 00:12:59;;;;;;;28.75;13.73;;;;;;;;;;5103558;28;20061;-76
2023/01/24 00:15:24;;;;;;;28.00;13.95;;;;;;;;;;5102419;28;20091;-74
2023/01/24 00:17:50;;;;;;;26.58;13.77;;;;;;;;;;5092439;28;20483;-75
2023/01/24 00:20:15;;;;;;;28.33;13.55;;;;;;;;;;5082955;28;20089;-75
2023/01/24 00:22:41;;;;;;;29.17;13.52;;;;;;;;;;5082989;28;20031;-76
2023/01/24 00:25:07;;;;;;;28.30;13.80;;;;;;;;;;5083117;28;20036;-72
2023/01/24 00:27:34;;;;;;;28.08;13.35;;;;;;;;;;5082635;28;20024;-74
2023/01/24 00:29:59;;;;;;;25.42;12.88;;;;;;;;;;5083053;28;20040;-74
2023/01/24 00:32:25;;;;;;;31.42;14.18;;;;;;;;;;5082830;28;20198;-76
2023/01/24 00:34:50;;;;;;;27.92;13.25;;;;;;;;;;5082585;28;20338;-75
2023/01/24 00:37:16;;;;;;;29.17;14.18;;;;;;;;;;5081333;28;20024;-74
2023/01/24 00:39:41;;;;;;;28.65;12.90;;;;;;;;;;5082261;28;20044;-73
2023/01/24 00:42:06;;;;;;;25.23;13.13;;;;;;;;;;5081560;28;20035;-75
2023/01/24 00:44:32;;;;;;;26.17;13.23;;;;;;;;;;5081186;28;20028;-77
2023/01/24 00:46:57;;;;;;;30.50;13.68;;;;;;;;;;5081214;28;20024;-76
2023/01/24 00:49:22;;;;;;;25.35;13.30;;;;;;;;;;5080839;28;20013;-75
2023/01/24 00:51:48;;;;;;;28.27;13.10;;;;;;;;;;5081056;28;20036;-77
2023/01/24 00:54:13;;;;;;;29.83;13.60;;;;;;;;;;5081094;28;20091;-75
2023/01/24 00:56:38;;;;;;;26.40;13.35;;;;;;;;;;5080989;28;20077;-74
2023/01/24 00:59:04;;;;;;;25.55;12.88;;;;;;;;;;5081714;28;20103;-70
2023/01/24 01:01:29;;;;;;;26.50;13.75;;;;;;;;;;5081911;28;20206;-73
2023/01/24 01:03:56;;;;;;;28.30;12.93;;;;;;;;;;5081969;28;20027;-77
2023/01/24 01:06:22;;;;;;;24.65;12.25;;;;;;;;;;5081853;28;20036;-77
2023/01/24 01:08:47;;;;;;;26.65;14.18;;;;;;;;;;5082079;28;20024;-74
2023/01/24 01:11:13;;;;;;;27.30;14.05;;;;;;;;;;5081989;28;20312;-76
2023/01/24 01:13:38;;;;;;;28.73;13.25;;;;;;;;;;5082019;28;20024;-75
2023/01/24 01:16:10;;;;;;;25.67;13.50;;;;;;;;;;5082069;28;20228;-76
2023/01/24 01:18:36;;;;;;;28.02;13.48;;;;;;;;;;5081513;28;20040;-76
2023/01/24 01:21:02;;;;;;;28.45;13.65;;;;;;;;;;5081799;28;20028;-74
2023/01/24 01:23:28;;;;;;;23.50;12.70;;;;;;;;;;5081712;28;20032;-76
2023/01/24 01:25:58;;;;;;;25.98;13.25;;;;;;;;;;5081853;28;20074;-74
2023/01/24 01:28:24;;;;;;;24.10;12.68;;;;;;;;;;5081651;28;20029;-76
2023/01/24 01:30:52;;;;;;;27.63;13.77;;;;;;;;;;5064041;28;20036;-77
2023/01/24 01:33:18;;;;;;;26.02;13.23;;;;;;;;;;5081116;28;20056;-76
2023/01/24 01:35:43;;;;;;;27.58;13.80;;;;;;;;;;5081620;28;20055;-77
2023/01/24 01:38:09;;;;;;;26.20;13.48;;;;;;;;;;5081407;28;20032;-77
2023/01/24 01:40:34;;;;;;;25.85;13.27;;;;;;;;;;5081509;28;20029;-76
2023/01/24 01:43:00;;;;;;;26.10;13.13;;;;;;;;;;5081341;28;20051;-74
2023/01/24 01:45:39;;;;;;;26.80;13.77;;;;;;;;;;5081559;28;20378;-75
2023/01/24 01:48:34;;;;;;;26.63;13.57;;;;;;;;;;5081211;28;20025;-76
2023/01/24 01:51:16;;;;;;;28.05;13.65;;;;;;;;;;5079749;28;20060;-77
2023/01/24 01:53:49;;;;;;;28.27;13.70;;;;;;;;;;5081252;28;20450;-76
2023/01/24 01:56:33;;;;;;;29.67;13.82;;;;;;;;;;5081255;28;20325;-77
2023/01/24 01:59:04;;;;;;;26.10;12.90;;;;;;;;;;5081263;28;20024;-77
2023/01/24 02:01:30;;;;;;;25.58;13.15;;;;;;;;;;5081093;28;20040;-74
2023/01/24 02:04:05;;;;;;;27.20;12.57;;;;;;;;;;5080796;28;20073;-76
2023/01/24 02:06:50;;;;;;;26.67;13.35;;;;;;;;;;5081207;28;20036;-76
2023/01/24 02:09:20;;;;;;;27.40;13.38;;;;;;;;;;5080932;28;20041;-75
2023/01/24 02:11:45;;;;;;;27.50;13.57;;;;;;;;;;5080903;28;20028;-75
2023/01/24 02:17:21;;;;;;;26.98;13.02;;;;;;;;;;5001715;28;20042;-78
2023/01/24 02:20:32;;;;;;;25.70;12.73;;;;;;;;;;5000796;28;20128;-72
2023/01/24 02:23:01;;;;;;;25.65;12.98;;;;;;;;;;5048534;28;20366;-71
2023/01/24 02:25:36;;;;;;;25.90;12.38;;;;;;;;;;5080990;28;20028;-76
2023/01/24 02:28:03;;;;;;;24.67;12.27;;;;;;;;;;5080706;28;20032;-78
2023/01/24 02:30:30;;;;;;;24.23;12.98;;;;;;;;;;5081034;28;20317;-77
2023/01/24 02:32:56;;;;;;;25.13;12.20;;;;;;;;;;5080729;28;20311;-73
2023/01/24 02:35:25;;;;;;;33.13;12.70;;;;;;;;;;5080662;28;20028;-74
2023/01/24 02:37:51;;;;;;;24.75;12.82;;;;;;;;;;5080935;28;20032;-71
2023/01/24 02:40:17;;;;;;;22.75;12.50;;;;;;;;;;5084950;28;20368;-76
2023/01/24 02:42:42;;;;;;;24.83;12.32;;;;;;;;;;5084869;28;20980;-76
2023/01/24 02:45:34;;;;;;;22.77;12.25;;;;;;;;;;5067062;28;20243;-74
2023/01/24 02:48:00;;;;;;;23.60;11.75;;;;;;;;;;5080852;28;20048;-74
2023/01/24 02:50:28;;;;;;;22.98;12.18;;;;;;;;;;5084551;28;20024;-75
2023/01/24 02:58:05;;;;;;;25.83;11.60;;;;;;;;;;5084899;28;20066;-74
2023/01/24 02:58:24;;;;;;;24.33;12.30;;;;;;;;;;5084247;28;20040;-72
2023/01/24 03:00:49;;;;;;;24.40;12.43;;;;;;;;;;5084683;28;20023;-73
2023/01/24 03:03:15;;;;;;;24.38;12.23;;;;;;;;;;5083691;28;20029;-74
2023/01/24 03:05:56;;;;;;;22.92;11.52;;;;;;;;;;5084509;28;20028;-74
2023/01/24 03:08:24;;;;;;;21.85;11.80;;;;;;;;;;5084340;28;20044;-75
2023/01/24 03:10:49;;;;;;;23.77;11.63;;;;;;;;;;5084322;28;20032;-76
2023/01/24 03:35:07;;;;;;;21.95;11.27;;;;;;;;;;5083744;28;20100;-74
2023/01/24 03:40:17;;;;;;;24.70;12.00;;;;;;;;;;5083916;28;20083;-73
2023/01/24 03:42:48;;;;;;;23.90;11.55;;;;;;;;;;5083750;28;20327;-76
2023/01/24 03:45:17;;;;;;;24.52;11.55;;;;;;;;;;5083966;28;20032;-76
2023/01/24 03:47:56;;;;;;;22.73;11.52;;;;;;;;;;5083597;28;20059;-75
2023/01/24 03:53:16;;;;;;;23.23;11.88;;;;;;;;;;5083578;28;20036;-76
2023/01/24 03:55:41;;;;;;;21.60;11.13;;;;;;;;;;5083616;28;20225;-78
2023/01/24 03:58:08;;;;;;;22.35;11.93;;;;;;;;;;5083469;28;20032;-75
2023/01/24 04:00:34;;;;;;;23.05;11.40;;;;;;;;;;5083479;28;20047;-73
2023/01/24 04:03:00;;;;;;;21.65;11.05;;;;;;;;;;5083374;28;20037;-76
2023/01/24 04:05:26;;;;;;;23.13;11.82;;;;;;;;;;5083062;28;20035;-75
2023/01/24 04:07:53;;;;;;;20.77;11.00;;;;;;;;;;5083625;28;20024;-75
2023/01/24 04:10:18;;;;;;;20.05;11.25;;;;;;;;;;5083544;28;20099;-76
2023/01/24 04:12:44;;;;;;;21.38;11.30;;;;;;;;;;5083134;28;20028;-76
2023/01/24 04:15:16;;;;;;;21.92;11.77;;;;;;;;;;5083156;28;20251;-77
2023/01/24 04:17:41;;;;;;;22.02;11.50;;;;;;;;;;5083325;28;20564;-77
2023/01/24 04:20:08;;;;;;;20.67;11.48;;;;;;;;;;5082730;28;20020;-73
2023/01/24 04:22:33;;;;;;;25.42;12.02;;;;;;;;;;5082933;28;20029;-76
2023/01/24 04:24:58;;;;;;;21.55;11.38;;;;;;;;;;5083074;28;20070;-76
2023/01/24 04:27:24;;;;;;;23.02;11.95;;;;;;;;;;5083059;28;20189;-74
2023/01/24 04:29:49;;;;;;;19.95;10.75;;;;;;;;;;5082758;28;20036;-77
2023/01/24 04:32:14;;;;;;;21.45;11.38;;;;;;;;;;5082853;28;20092;-77
2023/01/24 04:34:40;;;;;;;21.58;11.23;;;;;;;;;;5082408;28;20028;-75
2023/01/24 04:37:05;;;;;;;22.67;11.63;;;;;;;;;;5065022;28;20016;-74
2023/01/24 04:39:31;;;;;;;22.60;11.82;;;;;;;;;;5082620;28;20340;-73
2023/01/24 04:41:56;;;;;;;22.90;11.63;;;;;;;;;;5082940;28;20031;-76
2023/01/24 04:44:21;;;;;;;22.70;11.60;;;;;;;;;;5082484;28;20036;-74
2023/01/24 04:46:47;;;;;;;23.08;11.40;;;;;;;;;;5082676;28;20021;-76
2023/01/24 04:49:12;;;;;;;23.10;11.48;;;;;;;;;;5082069;28;20032;-76
2023/01/24 04:51:41;;;;;;;22.40;11.02;;;;;;;;;;5064820;28;20028;-77
2023/01/24 04:54:07;;;;;;;22.80;11.40;;;;;;;;;;5064405;28;20081;-77
2023/01/24 04:56:33;;;;;;;20.50;11.07;;;;;;;;;;5082558;28;20255;-75
2023/01/24 04:58:58;;;;;;;23.25;12.52;;;;;;;;;;5082463;28;20070;-76
2023/01/24 05:01:23;;;;;;;21.88;11.07;;;;;;;;;;5081745;28;20040;-76
2023/01/24 05:03:49;;;;;;;28.25;12.38;;;;;;;;;;5081867;28;20099;-77
2023/01/24 05:06:14;;;;;;;23.38;12.02;;;;;;;;;;5082081;28;20034;-76
2023/01/24 05:08:39;;;;;;;22.75;11.52;;;;;;;;;;5082036;28;20028;-76
2023/01/24 05:11:05;;;;;;;22.85;11.45;;;;;;;;;;5064131;28;20060;-76
2023/01/24 05:13:30;;;;;;;21.17;11.27;;;;;;;;;;5081999;28;20036;-76
2023/01/24 05:15:56;;;;;;;23.48;11.50;;;;;;;;;;5081924;28;20024;-74
2023/01/24 05:18:21;;;;;;;23.58;11.50;;;;;;;;;;5082128;28;20040;-76
2023/01/24 05:20:46;;;;;;;22.40;11.60;;;;;;;;;;5081500;28;20032;-76
2023/01/24 05:23:12;;;;;;;21.60;11.35;;;;;;;;;;5081875;28;20020;-77
2023/01/24 05:25:37;;;;;;;23.15;11.68;;;;;;;;;;5081667;28;20035;-75
2023/01/24 05:28:03;;;;;;;21.48;11.15;;;;;;;;;;5081678;28;20037;-74
2023/01/24 05:30:29;;;;;;;22.10;11.23;;;;;;;;;;5081927;28;20025;-76
2023/01/24 05:32:58;;;;;;;20.85;11.48;;;;;;;;;;5081725;28;20032;-77
2023/01/24 05:35:23;;;;;;;22.50;11.88;;;;;;;;;;5081214;28;20224;-76
2023/01/24 05:37:49;;;;;;;22.33;11.75;;;;;;;;;;5081696;28;20033;-77
2023/01/24 05:40:15;;;;;;;21.92;11.95;;;;;;;;;;5081468;28;20028;-76
2023/01/24 05:42:42;;;;;;;22.58;11.63;;;;;;;;;;5081413;28;20194;-76
2023/01/24 05:45:10;;;;;;;22.25;11.02;;;;;;;;;;5081346;28;20374;-76
2023/01/24 05:47:35;;;;;;;22.73;11.63;;;;;;;;;;5081400;28;20272;-76
2023/01/24 05:50:01;;;;;;;22.33;12.40;;;;;;;;;;5081076;28;20028;-75
2023/01/24 05:52:26;;;;;;;22.10;11.32;;;;;;;;;;5081530;28;20113;-76
2023/01/24 05:54:52;;;;;;;23.77;11.40;;;;;;;;;;5081446;28;20027;-75
2023/01/24 05:57:17;;;;;;;22.77;12.25;;;;;;;;;;5081453;28;20028;-76
2023/01/24 05:59:43;;;;;;;24.85;12.32;;;;;;;;;;5081181;28;20032;-77
2023/01/24 06:02:09;;;;;;;24.60;12.25;;;;;;;;;;5081447;28;20044;-73
2023/01/24 06:04:34;;;;;;;24.30;12.55;;;;;;;;;;5083719;28;20084;-78
2023/01/24 06:07:00;;;;;;;23.48;12.05;;;;;;;;;;5085028;28;20315;-76
2023/01/24 06:09:25;;;;;;;23.42;11.82;;;;;;;;;;5082454;28;20036;-72
2023/01/24 06:11:51;;;;;;;21.92;11.88;;;;;;;;;;5063386;28;20316;-76
2023/01/24 06:14:16;;;;;;;24.13;12.50;;;;;;;;;;5080354;28;20028;-74
2023/01/24 06:16:43;;;;;;;24.05;12.43;;;;;;;;;;5080835;28;20055;-71
2023/01/24 06:19:10;;;;;;;26.20;12.95;;;;;;;;;;5080663;28;20087;-76
2023/01/24 06:21:56;;;;;;;23.45;12.27;;;;;;;;;;5063037;28;20031;-74
2023/01/24 06:24:23;;;;;;;29.77;12.85;;;;;;;;;;5080970;28;20036;-72
2023/01/24 06:26:50;;;;;;;24.60;12.23;;;;;;;;;;5081029;28;20075;-75
2023/01/24 06:29:17;;;;;;;26.90;13.32;;;;;;;;;;5081008;28;20065;-77
2023/01/24 06:31:51;;;;;;;24.48;12.52;;;;;;;;;;5080817;28;20048;-72
2023/01/24 06:34:38;;;;;;;24.63;11.93;;;;;;;;;;5080480;28;20030;-76
2023/01/24 06:37:25;;;;;;;23.90;12.60;;;;;;;;;;5080678;28;20066;-75
2023/01/24 06:39:52;;;;;;;23.20;11.65;;;;;;;;;;5080966;28;20253;-76
2023/01/24 06:42:22;;;;;;;23.83;12.25;;;;;;;;;;5080996;28;20047;-74
2023/01/24 06:44:48;;;;;;;23.30;12.05;;;;;;;;;;5062877;28;20090;-73
2023/01/24 06:47:14;;;;;;;23.80;11.10;;;;;;;;;;5080786;28;20032;-77
2023/01/24 06:49:40;;;;;;;25.52;11.88;;;;;;;;;;5080391;28;20054;-75
2023/01/24 06:52:07;;;;;;;25.88;12.07;;;;;;;;;;5080559;28;20213;-73
2023/01/24 06:54:35;;;;;;;24.50;12.30;;;;;;;;;;5080577;28;20028;-73
2023/01/24 06:57:02;;;;;;;25.67;12.63;;;;;;;;;;5080567;28;20111;-75
2023/01/24 06:59:27;;;;;;;23.33;11.95;;;;;;;;;;5080711;28;20084;-76
2023/01/24 07:01:53;;;;;;;25.23;12.30;;;;;;;;;;5080395;28;20117;-77
2023/01/24 07:04:18;;;;;;;24.67;12.38;;;;;;;;;;5062359;28;20096;-77
2023/01/24 07:06:44;;;;;;;27.85;12.27;;;;;;;;;;5080408;28;20201;-72
2023/01/24 07:09:09;;;;;;;24.42;12.55;;;;;;;;;;5080324;28;20038;-75
2023/01/24 07:11:35;;;;;;;25.65;12.15;;;;;;;;;;5080244;28;20189;-77
2023/01/24 07:14:01;;;;;;;31.80;12.80;;;;;;;;;;5080214;28;20032;-76
2023/01/24 07:16:26;;;;;;;23.40;11.90;;;;;;;;;;5080456;28;20024;-74
2023/01/24 07:18:52;;;;;;;26.20;12.07;;;;;;;;;;5080312;28;20028;-77
2023/01/24 07:21:18;;;;;;;24.55;12.50;;;;;;;;;;5080475;28;20032;-74
2023/01/24 07:23:45;;;;;;;23.25;11.90;;;;;;;;;;5080311;28;20028;-76
2023/01/24 07:26:12;;;;;;;22.48;12.15;;;;;;;;;;5083795;28;20035;-76
2023/01/24 07:28:38;;;;;;;25.10;12.00;;;;;;;;;;5084021;28;20316;-76
2023/01/24 07:31:03;;;;;;;26.17;12.65;;;;;;;;;;5066162;28;20041;-75
2023/01/24 07:33:29;;;;;;;23.42;12.02;;;;;;;;;;5083622;28;20094;-77
2023/01/24 07:35:55;;;;;;;25.73;13.55;;;;;;;;;;5083933;28;20036;-76
2023/01/24 07:38:20;;;;;;;24.38;12.95;;;;;;;;;;5083938;28;20048;-74
2023/01/24 07:40:45;;;;;;;25.05;12.77;;;;;;;;;;5083864;28;20025;-77
2023/01/24 07:43:11;;;;;;;23.33;12.52;;;;;;;;;;5083706;28;20024;-77
2023/01/24 07:45:38;;;;;;;28.33;12.85;;;;;;;;;;5083730;28;20232;-72
2023/01/24 07:48:04;;;;;;;26.15;12.68;;;;;;;;;;5088553;28;20389;-77
2023/01/24 07:50:31;;;;;;;26.88;12.90;;;;;;;;;;5088223;28;20028;-77
2023/01/24 07:52:56;;;;;;;23.95;12.55;;;;;;;;;;5068723;28;20100;-74
2023/01/24 07:55:22;;;;;;;23.95;12.90;;;;;;;;;;5083764;28;20229;-74
2023/01/24 07:57:48;;;;;;;25.90;12.15;;;;;;;;;;5066152;28;20059;-79
2023/01/24 08:00:15;;;;;;;23.75;12.35;;;;;;;;;;5083845;28;20029;-76
2023/01/24 08:02:41;;;;;;;26.08;12.65;;;;;;;;;;5083352;28;20068;-74
2023/01/24 08:05:07;;;;;;;25.50;12.55;;;;;;;;;;5083135;28;20029;-75
2023/01/24 08:07:32;;;;;;;25.85;12.88;;;;;;;;;;5083424;28;20054;-73
2023/01/24 08:09:58;;;;;;;24.75;12.85;;;;;;;;;;5083585;28;20032;-74
2023/01/24 08:12:23;;;;;;;24.48;12.38;;;;;;;;;;5083267;28;20351;-73
2023/01/24 08:14:49;;;;;;;25.90;13.32;;;;;;;;;;5083274;28;20020;-73
2023/01/24 08:17:14;;;;;;;26.58;13.73;;;;;;;;;;5083176;28;20039;-75
2023/01/24 08:19:40;;;;;;;25.13;12.65;;;;;;;;;;5082917;28;20036;-74
2023/01/24 08:22:05;;;;;;;27.38;13.40;;;;;;;;;;5083095;28;20051;-74
2023/01/24 08:24:31;;;;;;;25.48;12.82;;;;;;;;;;5083059;28;20362;-74
2023/01/24 08:26:56;;;;;;;27.42;13.05;;;;;;;;;;5082981;28;20021;-74
2023/01/24 08:29:22;;;;;;;24.45;13.48;;;;;;;;;;5082940;28;20234;-73
2023/01/24 08:31:48;;;;;;;25.92;12.35;;;;;;;;;;5083777;28;20059;-74
2023/01/24 08:34:14;;;;;;;26.77;12.90;;;;;;;;;;5086133;28;20024;-70
2023/01/24 08:36:39;;;;;;;22.83;12.38;;;;;;;;;;5081690;28;20107;-74
2023/01/24 08:39:05;;;;;;;27.92;13.63;;;;;;;;;;5082913;28;20051;-74
2023/01/24 08:41:30;;;;;;;26.95;13.32;;;;;;;;;;5081642;28;20338;-78
2023/01/24 08:43:56;;;;;;;25.48;12.80;;;;;;;;;;5073778;28;20063;-75
2023/01/24 08:46:21;;;;;;;26.23;13.55;;;;;;;;;;5086161;28;20107;-70
2023/01/24 08:48:47;;;;;;;24.83;12.90;;;;;;;;;;5082344;28;20028;-70
2023/01/24 08:51:12;;;;;;;24.38;12.63;;;;;;;;;;5078006;28;20028;-72
2023/01/24 08:53:38;;;;;;;24.42;12.35;;;;;;;;;;5075673;28;20023;-70
2023/01/24 08:56:04;;;;;;;26.25;13.70;;;;;;;;;;5073375;28;20537;-63
2023/01/24 08:58:32;;;;;;;27.35;12.75;;;;;;;;;;5078336;28;20033;-68
2023/01/24 09:00:57;;;;;;;27.17;13.93;;;;;;;;;;5069810;28;20024;-70
2023/01/24 09:03:22;;;;;;;29.08;13.50;;;;;;;;;;5070084;28;20032;-70
2023/01/24 09:05:48;;;;;;;26.48;13.68;;;;;;;;;;5070497;28;20029;-68
2023/01/24 09:08:15;;;;;;;25.50;13.40;;;;;;;;;;5068071;28;20024;-72
2023/01/24 09:10:40;;;;;;;25.88;12.88;;;;;;;;;;5063631;28;20033;-71
2023/01/24 09:13:06;;;;;;;25.70;13.63;;;;;;;;;;5070428;28;20019;-70
2023/01/24 09:15:31;;;;;;;29.55;13.25;;;;;;;;;;5067725;28;20029;-70
2023/01/24 09:18:01;;;;;;;25.65;13.55;;;;;;;;;;5070465;28;20495;-67
2023/01/24 09:20:26;;;;;;;24.30;12.63;;;;;;;;;;5068686;28;20490;-65
2023/01/24 09:22:51;;;;;;;27.38;12.68;;;;;;;;;;5069110;28;20471;-68
2023/01/24 09:25:17;;;;;;;22.08;12.32;;;;;;;;;;5068434;28;20024;-67
2023/01/24 09:27:42;;;;;;;24.95;12.88;;;;;;;;;;5067935;28;20112;-66
2023/01/24 09:30:09;;;;;;;24.85;13.02;;;;;;;;;;5068018;28;20017;-66
2023/01/24 09:32:35;;;;;;;22.52;12.35;;;;;;;;;;5067987;28;20547;-66
2023/01/24 09:35:01;;;;;;;24.02;12.60;;;;;;;;;;5067427;28;20577;-66
2023/01/24 09:37:26;;;;;;;23.80;12.48;;;;;;;;;;5067938;28;20025;-71
2023/01/24 09:39:55;;;;;;;22.58;11.95;;;;;;;;;;5068891;28;20025;-80
2023/01/24 09:42:44;;;;;;;24.05;12.63;;;;;;;;;;5069903;28;20056;-76
2023/01/24 09:45:27;;;;;;;20.90;11.23;;;;;;;;;;5070274;28;20085;-77
2023/01/24 09:48:10;;;;;;;22.98;12.18;;;;;;;;;;5077498;28;20028;-75
2023/01/24 09:50:46;;;;;;;24.00;12.35;;;;;;;;;;5074570;28;20082;-72
2023/01/24 09:53:19;;;;;;;23.95;13.35;;;;;;;;;;5079202;28;20077;-69
2023/01/24 09:55:46;;;;;;;23.13;12.65;;;;;;;;;;5073116;28;20032;-71
2023/01/24 09:58:35;;;;;;;23.50;12.50;;;;;;;;;;5075213;28;20036;-68
2023/01/24 10:01:05;;;;;;;21.20;12.02;;;;;;;;;;5074392;28;20029;-70
2023/01/24 10:03:31;;;;;;;23.70;12.13;;;;;;;;;;5071406;28;20021;-70
2023/01/24 10:06:01;;;;;;;23.50;12.23;;;;;;;;;;5070144;28;20024;-76
2023/01/24 10:08:54;;;;;;;22.65;11.90;;;;;;;;;;5057449;28;20025;-72
2023/01/24 10:11:55;;;;;;;23.15;12.38;;;;;;;;;;5070470;28;20028;-68
2023/01/24 10:14:42;;;;;;;21.27;11.88;;;;;;;;;;4985629;28;20050;-70
2023/01/24 10:17:26;;;;;;;22.40;12.27;;;;;;;;;;5059837;28;20024;-67
2023/01/24 10:20:05;;;;;;;22.20;11.60;;;;;;;;;;5070917;28;20028;-69
2023/01/24 10:22:52;;;;;;;23.48;12.48;;;;;;;;;;5049454;28;20041;-69
2023/01/24 10:25:46;;;;;;;21.45;11.38;;;;;;;;;;5049515;28;20029;-68
2023/01/24 10:28:25;;;;;;;28.58;12.90;;;;;;;;;;5031142;28;20496;-66
2023/01/24 10:31:07;;;;;;;25.75;11.88;;;;;;;;;;5076213;28;20035;-67
2023/01/24 10:33:43;;;;;;;20.63;11.73;;;;;;;;;;5068908;28;20020;-74
2023/01/24 10:36:46;;;;;;;22.48;11.88;;;;;;;;;;5069099;28;20032;-67
2023/01/24 10:39:12;;;;;;;23.55;11.70;;;;;;;;;;5065408;28;20047;-68
2023/01/24 10:41:37;;;;;;;21.70;11.77;;;;;;;;;;5051054;28;20039;-68
2023/01/24 10:44:28;;;;;;;21.42;11.95;;;;;;;;;;5050659;28;20029;-67
2023/01/24 10:46:54;;;;;;;;;;;;;;;;;;5058448;28;20585;-66
2023/01/24 10:49:25;;;;;;;21.02;11.30;;;;;;;;;;5048367;28;19913;-69
2023/01/24 10:52:11;;;;;;;22.10;11.73;;;;;;;;;;5048765;28;20036;-74
2023/01/24 10:54:50;;;;;;;24.52;12.80;;;;;;;;;;5030509;28;20516;-74
2023/01/24 10:57:23;;;;;;;22.25;12.13;;;;;;;;;;5048823;28;20117;-75
2023/01/24 10:59:48;;;;;;;23.48;11.65;;;;;;;;;;5050303;28;20017;-72
2023/01/24 11:02:24;;;;;;;20.73;11.80;;;;;;;;;;5056274;28;20175;-73
2023/01/24 11:05:02;;;;;;;22.42;11.13;;;;;;;;;;5052183;28;20044;-81
2023/01/24 11:07:40;;;;;;;23.17;12.00;;;;;;;;;;5058849;28;20025;-74
2023/01/24 11:10:18;;;;;;;23.55;12.13;;;;;;;;;;5079259;28;20031;-76
2023/01/24 11:12:49;;;;;;;22.92;12.00;;;;;;;;;;5064658;28;20036;-74
2023/01/24 11:15:22;;;;;;;20.92;11.60;;;;;;;;;;5072874;28;20039;-76
2023/01/24 11:17:54;;;;;;;22.23;11.43;;;;;;;;;;5073348;28;20040;-76
2023/01/24 11:20:28;;;;;;;21.35;11.73;;;;;;;;;;5071596;28;20058;-76
2023/01/24 11:23:27;;;;;;;22.98;11.73;;;;;;;;;;5072896;28;20025;-74
2023/01/24 11:25:56;;;;;;;19.67;10.85;;;;;;;;;;5072242;28;20223;-76
2023/01/24 11:28:26;;;;;;;22.10;11.75;;;;;;;;;;5076889;28;20078;-71
2023/01/24 11:30:54;;;;;;;21.88;11.40;;;;;;;;;;5073524;28;20036;-68
2023/01/24 11:33:34;;;;;;;18.30;10.55;;;;;;;;;;5085420;28;20032;-74
2023/01/24 11:36:07;;;;;;;21.63;10.83;;;;;;;;;;5081584;28;20050;-77
2023/01/24 11:38:37;;;;;;;16.52;9.75;;;;;;;;;;5083663;28;20339;-75
2023/01/24 11:41:05;;;;;;;137.55;33.03;;;;;;;;;;5087274;28;20020;-74
2023/01/24 11:43:45;;;;;;;26.92;12.93;;;;;;;;;;5091314;28;20055;-77
2023/01/24 11:46:32;;;;;;;18.43;9.77;;;;;;;;;;5090448;28;20024;-77
2023/01/24 11:48:57;;;;;;;16.92;9.90;;;;;;;;;;5082609;28;20318;-77
2023/01/24 11:51:30;;;;;;;18.33;10.23;;;;;;;;;;5081380;28;20031;-77
2023/01/24 11:54:14;;;;;;;18.17;10.82;;;;;;;;;;5078279;28;20036;-72
2023/01/24 11:57:06;;;;;;;19.77;10.60;;;;;;;;;;5073883;28;20035;-78
2023/01/24 12:00:16;;;;;;;18.58;10.32;;;;;;;;;;5071411;28;20028;-75
2023/01/24 12:03:19;;;;;;;18.17;10.13;;;;;;;;;;5053623;28;20041;-76
2023/01/24 12:06:44;;;;;;;19.60;10.15;;;;;;;;;;5061664;28;20269;-79
2023/01/24 12:09:19;;;;;;;17.80;10.00;;;;;;;;;;5040167;28;20337;-77
2023/01/24 12:12:09;;;;;;;17.77;10.27;;;;;;;;;;5022779;28;20192;-80
2023/01/24 12:15:04;;;;;;;17.02;9.88;;;;;;;;;;5052131;28;20064;-72
2023/01/24 12:17:48;;;;;;;19.17;10.25;;;;;;;;;;5061247;28;20059;-75
2023/01/24 12:20:35;;;;;;;18.67;9.60;;;;;;;;;;5060788;28;20056;-74
2023/01/24 12:23:17;;;;;;;20.08;9.85;;;;;;;;;;5059266;28;20317;-76
2023/01/24 12:25:45;;;;;;;18.73;9.77;;;;;;;;;;5061591;28;20029;-70
2023/01/24 12:28:31;;;;;;;17.50;10.35;;;;;;;;;;5062769;28;20204;-74
2023/01/24 12:30:59;;;;;;;18.15;10.00;;;;;;;;;;5061449;28;20058;-78
2023/01/24 12:33:48;;;;;;;16.50;9.13;;;;;;;;;;5057845;28;20029;-71
2023/01/24 12:36:39;;;;;;;17.05;9.50;;;;;;;;;;5059621;28;20040;-76
2023/01/24 12:39:15;;;;;;;15.47;9.30;;;;;;;;;;5062601;28;20248;-74
2023/01/24 12:41:40;;;;;;;19.60;9.43;;;;;;;;;;5062168;28;20025;-75
2023/01/24 12:44:11;;;;;;;18.30;9.65;;;;;;;;;;5060907;28;20063;-74
2023/01/24 12:46:42;;;;;;;17.08;8.55;;;;;;;;;;5057991;28;20021;-76
2023/01/24 12:49:36;;;;;;;18.02;8.68;;;;;;;;;;5058700;28;20068;-74
2023/01/24 12:52:14;;;;;;;15.90;8.80;;;;;;;;;;5032062;28;20475;-74
2023/01/24 12:54:46;;;;;;;16.15;8.63;;;;;;;;;;5060596;28;20033;-73
2023/01/24 12:57:12;;;;;;;16.00;8.55;;;;;;;;;;5059086;28;20495;-73
2023/01/24 12:59:37;;;;;;;17.45;9.18;;;;;;;;;;5062054;28;20735;-77
2023/01/24 13:02:20;;;;;;;16.80;9.13;;;;;;;;;;5055045;28;20064;-76
2023/01/24 13:04:57;;;;;;;17.25;9.50;;;;;;;;;;5056212;28;20037;-75
2023/01/24 13:07:32;;;;;;;16.75;9.65;;;;;;;;;;5056641;28;20033;-75
2023/01/24 13:10:09;;;;;;;18.13;9.57;;;;;;;;;;5055520;28;20033;-71
2023/01/24 13:12:34;;;;;;;19.70;9.77;;;;;;;;;;5055570;28;20392;-70
2023/01/24 13:15:26;;;;;;;16.35;9.57;;;;;;;;;;5058596;28;20033;-71
2023/01/24 13:18:10;;;;;;;18.40;9.57;;;;;;;;;;5053903;28;20064;-71
2023/01/24 13:21:06;;;;;;;16.50;9.60;;;;;;;;;;5055886;28;20032;-80
2023/01/24 13:24:02;;;;;;;16.05;8.25;;;;;;;;;;5085381;28;20158;-84
2023/01/24 13:26:48;;;;;;;14.05;8.15;;;;;;;;;;5062522;28;20036;-85
2023/01/24 13:29:32;;;;;;;13.57;7.55;;;;;;;;;;5072356;28;20040;-83
2023/01/24 13:32:13;;;;;;;14.70;7.97;;;;;;;;;;5084930;28;20063;-74
2023/01/24 13:34:47;;;;;;;11.73;6.88;;;;;;;;;;5072336;28;20039;-82
2023/01/24 13:37:30;;;;;;;11.45;6.63;;;;;;;;;;5076005;28;20092;-82
2023/01/24 13:40:29;;;;;;;11.32;7.05;;;;;;;;;;5077529;28;20035;-77
2023/01/24 13:42:55;;;;;;;13.80;7.45;;;;;;;;;;5077352;28;20060;-85
2023/01/24 13:45:24;;;;;;;12.82;7.53;;;;;;;;;;5079978;28;20043;-82
2023/01/24 13:47:50;;;;;;;14.20;7.03;;;;;;;;;;5079368;28;20024;-85
2023/01/24 13:50:17;;;;;;;15.02;7.35;;;;;;;;;;5077549;28;20099;-75
2023/01/24 13:52:55;;;;;;;13.48;8.10;;;;;;;;;;5076993;28;20016;-75
2023/01/24 13:55:21;;;;;;;12.93;7.43;;;;;;;;;;5068763;28;20111;-79
2023/01/24 13:57:49;;;;;;;13.50;7.82;;;;;;;;;;5068217;28;20028;-83
2023/01/24 14:00:18;;;;;;;14.52;8.02;;;;;;;;;;5074054;28;20032;-87
2023/01/24 14:02:53;;;;;;;12.57;7.03;;;;;;;;;;5068107;28;20048;-80
2023/01/24 14:05:27;;;;;;;14.45;7.72;;;;;;;;;;5068767;28;20032;-69
2023/01/24 14:07:57;;;;;;;14.90;7.53;;;;;;;;;;5068359;28;20484;-77
2023/01/24 14:10:42;;;;;;;12.73;7.95;;;;;;;;;;5074832;28;20028;-74
2023/01/24 14:13:41;;;;;;;13.20;7.70;;;;;;;;;;5069323;28;20135;-75
2023/01/24 14:16:26;;;;;;;13.55;8.07;;;;;;;;;;5068352;28;20108;-73
2023/01/24 14:18:57;;;;;;;14.77;7.90;;;;;;;;;;5068562;28;20025;-74
2023/01/24 14:21:32;;;;;;;15.65;7.93;;;;;;;;;;5068126;28;20389;-74
2023/01/24 14:24:10;;;;;;;14.40;8.57;;;;;;;;;;5069385;28;20469;-67
2023/01/24 14:26:35;;;;;;;15.00;8.43;;;;;;;;;;5068779;28;20033;-69
2023/01/24 14:29:03;;;;;;;14.35;8.02;;;;;;;;;;5069205;28;20031;-72
2023/01/24 14:31:33;;;;;;;13.73;7.65;;;;;;;;;;5068868;28;20028;-76
2023/01/24 14:34:04;;;;;;;13.18;7.18;;;;;;;;;;5067966;28;20029;-71
2023/01/24 14:36:31;;;;;;;14.07;7.47;;;;;;;;;;5068701;28;20103;-78
2023/01/24 14:39:20;;;;;;;12.95;7.10;;;;;;;;;;5069255;28;20029;-72
2023/01/24 14:41:48;;;;;;;14.27;8.18;;;;;;;;;;5069329;28;20107;-71
2023/01/24 14:44:25;;;;;;;14.13;7.90;;;;;;;;;;5069198;28;20055;-74
2023/01/24 14:46:57;;;;;;;17.95;8.82;;;;;;;;;;5068730;28;20583;-78
2023/01/24 14:49:41;;;;;;;16.60;8.38;;;;;;;;;;5068406;28;20116;-78
2023/01/24 14:52:20;;;;;;;14.90;7.72;;;;;;;;;;5068735;28;20036;-78
2023/01/24 14:54:56;;;;;;;14.95;8.40;;;;;;;;;;5069514;28;20033;-73
2023/01/24 14:57:29;;;;;;;13.45;7.82;;;;;;;;;;5068738;28;20035;-75
2023/01/24 15:00:19;;;;;;;17.10;8.48;;;;;;;;;;5068981;28;20105;-77
2023/01/24 15:02:56;;;;;;;17.08;8.80;;;;;;;;;;5055879;28;20480;-74
2023/01/24 15:05:35;;;;;;;16.92;8.32;;;;;;;;;;5050768;28;20021;-69
2023/01/24 15:08:03;;;;;;;15.38;7.97;;;;;;;;;;5068076;28;20052;-74
2023/01/24 15:10:35;;;;;;;15.77;8.63;;;;;;;;;;5068914;28;20036;-73
2023/01/24 15:13:03;;;;;;;16.15;8.40;;;;;;;;;;5068781;28;20089;-75
2023/01/24 15:15:29;;;;;;;14.25;7.57;;;;;;;;;;5068937;28;20448;-75
2023/01/24 15:18:04;;;;;;;16.67;8.43;;;;;;;;;;5068554;28;20024;-78